Flight Track Log - Related Links

Times and Time Zones

All times are in EDT time to prevent confusion due to time zone crossing. See the UAL3732 flight status page for this flight to view local times or setup timezone preferences in your user account.

Time Position Orientation Groundspeed Altitude Reporting Facility
EDT Latitude Longitude Course Direction KTS MPH feet Rate Location/Type
Thu 02:36:56 PM 42.3667 -70.9833 90° East 167 192 700  Level KA90
Thu 02:37:56 PM 42.3667 -70.9167 90° East 184 212 2,300 1,836 Climbing KA90
Thu 02:39:10 PM 42.3900 -70.8250 71° East 216 249 4,800 2,015 Climbing Boston Center
Thu 02:40:10 PM 42.4494 -70.7664 36° Northeast 259 298 6,800 2,177 Climbing Boston Center
Thu 02:41:14 PM 42.5189 -70.8017 339° North 267 307 9,300 2,468 Climbing Boston Center
Thu 02:42:14 PM 42.5678 -70.8933 306° West 272 313 11,900 2,226 Climbing Boston Center
Thu 02:43:18 PM 42.6189 -70.9833 308° West 304 350 13,900 1,680 Climbing Boston Center
Thu 02:44:19 PM 42.6733 -71.0800 307° West 323 372 15,400 1,983 Climbing Boston Center
Thu 02:45:19 PM 42.6992 -71.2058 286° West 320 368 17,900 2,150 Climbing Boston Center
Thu 02:46:19 PM 42.7136 -71.3253 279° West 318 366 19,700 1,645 Climbing Boston Center
Thu 02:47:23 PM 42.7272 -71.4481 279° West 323 372 21,300 1,548 Climbing Boston Center
Thu 02:48:23 PM 42.7419 -71.5797 279° West 338 389 22,900 1,548 Climbing Boston Center
Thu 02:49:27 PM 42.7553 -71.7092 278° West 344 396 24,500 1,403 Climbing Boston Center
Thu 02:50:27 PM 42.7703 -71.8381 279° West 346 398 25,800 1,488 Climbing Boston Center
Thu 02:51:28 PM 42.7856 -71.9683 279° West 349 402 27,500 1,230 Climbing Boston Center
Thu 02:52:29 PM 42.7986 -72.0981 278° West 347 399 28,300 871 Climbing Boston Center
Thu 02:53:32 PM 42.8139 -72.2314 279° West 355 409 29,300 1,016 Climbing Boston Center
Thu 02:54:33 PM 42.8311 -72.3908 278° West 361 415 30,400 843 Climbing Boston Center
Thu 02:55:33 PM 42.8447 -72.5289 278° West 368 423 31,000 878 Climbing Boston Center
Thu 02:56:36 PM 42.8594 -72.6750 278° West 373 429 32,200 968 Climbing Boston Center
Thu 02:57:37 PM 42.8722 -72.8078 278° West 369 425 33,000 738 Climbing Boston Center
Thu 02:58:38 PM 42.8881 -72.9661 278° West 375 432 33,700 484 Climbing Boston Center
Thu 02:59:41 PM 42.9003 -73.0914 278° West 382 440 34,000 145 Climbing Boston Center
Thu 03:00:42 PM 42.9147 -73.2403 278° West 393 452 34,000  Level Boston Center
Thu 03:01:44 PM 42.9325 -73.4267 277° West 407 468 34,000  Level Boston Center
Thu 03:02:44 PM 42.9467 -73.5831 277° West 413 475 34,000  Level Boston Center
Thu 03:03:48 PM 42.9622 -73.7350 278° West 409 471 34,000  Level Boston Center
Thu 03:04:48 PM 42.9744 -73.8839 276° West 397 457 34,000  Level Boston Center
Thu 03:05:50 PM 42.9883 -74.0339 277° West 400 460 34,000  Level Boston Center
Thu 03:06:50 PM 43.0028 -74.1861 277° West 404 465 34,000  Level Boston Center
Thu 03:07:53 PM 43.0147 -74.3397 276° West 407 468 34,000 532 Level Boston Center
Thu 03:08:54 PM 43.0281 -74.4931 277° West 407 468 35,100 1,091 Climbing Boston Center
Thu 03:09:54 PM 43.0411 -74.6439 277° West 400 460 36,200 1,065 Climbing Boston Center
Thu 03:10:58 PM 43.0558 -74.8158 277° West 382 440 37,300 774 Climbing Boston Center
Thu 03:11:58 PM 43.0667 -74.9606 276° West 380 437 37,800 347 Climbing Boston Center
Thu 03:12:59 PM 43.0772 -75.1031 276° West 376 433 38,000 97 Climbing Boston Center
Thu 03:14:02 PM 43.0897 -75.2497 277° West 383 441 38,000  Level Boston Center
Thu 03:15:03 PM 43.1017 -75.4003 276° West 393 452 38,000  Level Boston Center
Thu 03:16:03 PM 43.1139 -75.5525 276° West 398 458 38,000  Level Boston Center
Thu 03:17:07 PM 43.1261 -75.7075 276° West 405 466 38,000  Level Boston Center
Thu 03:18:08 PM 43.1375 -75.8631 276° West 409 471 38,000  Level Boston Center
Thu 03:19:08 PM 43.1481 -76.0158 275° West 405 466 38,000  Level Boston Center
Thu 03:20:12 PM 43.1592 -76.1692 276° West 404 465 38,000  Level Boston Center
Thu 03:21:12 PM 43.1611 -76.3522 271° West 403 464 38,000  Level Boston Center
Thu 03:21:52 PM 43.1619 -76.4558 271° West 406 467 38,000  Level Cleveland Center
Thu 03:22:52 PM 43.1608 -76.6067 269° West 406 467 38,000  Level Cleveland Center
Thu 03:23:52 PM 43.1594 -76.7436 269° West 406 467 38,000  Level Cleveland Center
Thu 03:24:52 PM 43.1603 -76.8972 270° West 406 467 38,000  Level Cleveland Center
Thu 03:25:52 PM 43.1586 -77.0483 269° West 406 467 38,000  Level Cleveland Center
Thu 03:26:51 PM 43.1569 -77.1992 269° West 406 467 38,000  Level Cleveland Center
Thu 03:27:52 PM 43.1572 -77.3528 270° West 406 467 38,000  Level Cleveland Center
Thu 03:28:52 PM 43.1550 -77.5039 269° West 406 467 38,000  Level Cleveland Center
Thu 03:29:52 PM 43.1525 -77.6547 269° West 406 467 38,000  Level Cleveland Center
Thu 03:30:52 PM 43.1522 -77.8086 270° West 406 467 38,000  Level Cleveland Center
Thu 03:31:52 PM 43.1494 -77.9594 269° West 406 467 38,000  Level Cleveland Center
Thu 03:32:52 PM 43.1467 -78.1133 269° West 406 467 38,000  Level Cleveland Center
Thu 03:33:52 PM 43.1456 -78.2642 269° West 406 467 38,000  Level Cleveland Center
Thu 03:34:52 PM 43.1422 -78.4122 268° West 401 461 38,000  Level Cleveland Center
Thu 03:35:52 PM 43.1386 -78.5603 268° West 401 461 38,000  Level Cleveland Center
Thu 03:37:52 PM 43.1308 -78.8450 268° West 389 448 38,000  Level Cleveland Center
Thu 03:38:57 PM 43.1167 -79.0000 263° West 380 437 38,000  Level Toronto Center
Thu 03:39:57 PM 43.1167 -79.1333 270° West 380 437 38,000  Level Toronto Center
Thu 03:40:57 PM 43.1000 -79.2833 261° West 390 449 38,000  Level Toronto Center
Thu 03:41:57 PM 43.1000 -79.4333 270° West 390 449 38,000  Level Toronto Center
Thu 03:42:57 PM 43.1000 -79.5833 270° West 400 460 38,000  Level Toronto Center
Thu 03:43:57 PM 43.0833 -79.7167 260° West 400 460 38,000  Level Toronto Center
Thu 03:44:57 PM 43.0833 -79.8833 270° West 400 460 38,000  Level Toronto Center
Thu 03:45:57 PM 43.0833 -80.0500 270° West 400 460 38,000  Level Toronto Center
Thu 03:46:57 PM 43.0667 -80.2000 261° West 400 460 38,000  Level Toronto Center
Thu 03:47:57 PM 43.0667 -80.3333 270° West 400 460 38,000  Level Toronto Center
Thu 03:48:57 PM 43.0667 -80.5000 270° West 410 472 38,000  Level Toronto Center
Thu 03:49:57 PM 43.0500 -80.6667 262° West 400 460 38,000  Level Toronto Center
Thu 03:50:57 PM 43.0500 -80.8000 270° West 400 460 38,000  Level Toronto Center
Thu 03:51:57 PM 43.0333 -80.9500 261° West 400 460 38,000  Level Toronto Center
Thu 03:52:57 PM 43.0167 -81.1000 261° West 400 460 38,000  Level Toronto Center
Thu 03:53:57 PM 43.0167 -81.2500 270° West 400 460 38,000  Level Toronto Center
Thu 03:54:57 PM 43.0167 -81.4167 270° West 400 460 38,000  Level Toronto Center
Thu 03:55:57 PM 43.0167 -81.5667 270° West 400 460 38,000  Level Toronto Center
Thu 03:56:57 PM 43.0167 -81.7000 270° West 400 460 38,000  Level Toronto Center
Thu 03:57:57 PM 43.0167 -81.8667 270° West 400 460 38,000  Level Toronto Center
Thu 03:58:57 PM 43.0000 -82.0000 260° West 400 460 38,000  Level Toronto Center
Thu 03:59:57 PM 43.0000 -82.1667 270° West 400 460 38,000  Level Toronto Center
Thu 04:00:57 PM 43.0000 -82.3167 270° West 410 472 38,000  Level Toronto Center
Thu 04:01:57 PM 43.0000 -82.4833 270° West 410 472 38,000 -400 Level Toronto Center
Thu 04:02:57 PM 42.9833 -82.6500 262° West 420 483 37,200 -733 Descending Toronto Center
Thu 04:03:27 PM 42.9969 -82.7150 286° West 413 475 36,900 -733 Descending Cleveland Center
Thu 04:04:27 PM 42.9875 -82.8764 265° West 425 489 36,100 -800 Descending Cleveland Center
Thu 04:05:27 PM 42.9822 -83.0408 268° West 430 495 35,300 -800 Descending Cleveland Center
Thu 04:06:27 PM 42.9722 -83.2050 265° West 435 501 34,500 -800 Descending Cleveland Center
Thu 04:07:27 PM 42.9622 -83.3664 265° West 435 501 33,700 -800 Descending Cleveland Center
Thu 04:08:27 PM 42.9519 -83.5333 265° West 435 501 32,900 -800 Descending Cleveland Center
Thu 04:09:27 PM 42.9433 -83.6975 266° West 445 512 32,100 -450 Descending Cleveland Center
Thu 04:10:27 PM 42.9306 -83.8614 264° West 445 512 32,000 -50 Descending Cleveland Center
Thu 04:11:27 PM 42.9214 -84.0281 266° West 445 512 32,000  Level Cleveland Center
Thu 04:12:27 PM 42.9103 -84.1919 265° West 445 512 32,000  Level Cleveland Center
Thu 04:14:18 PM 42.8908 -84.4928 265° West 441 507 32,000  Level Chicago Center
Thu 04:15:20 PM 42.8772 -84.6583 264° West 442 509 32,000  Level Chicago Center
Thu 04:16:23 PM 42.8600 -84.8247 262° West 442 509 32,000  Level Chicago Center
Thu 04:17:25 PM 42.8386 -85.0264 262° West 448 516 32,000 -290 Level Chicago Center
Thu 04:18:27 PM 42.8206 -85.1950 262° West 451 519 31,400 -484 Descending Chicago Center
Thu 04:19:29 PM 42.8017 -85.3656 261° West 453 521 31,000 -677 Descending Chicago Center
Thu 04:20:31 PM 42.7803 -85.5372 260° West 459 528 30,000 -1,065 Descending Chicago Center
Thu 04:21:33 PM 42.7478 -85.7122 256° West 472 543 28,800 -1,258 Descending Chicago Center
Thu 04:22:35 PM 42.7181 -85.8778 256° West 453 521 27,400 -1,935 Descending Chicago Center
Thu 04:23:37 PM 42.6894 -86.0378 256° West 435 501 24,800 -3,097 Descending Chicago Center
Thu 04:24:39 PM 42.6544 -86.2311 256° West 437 503 21,000 -3,048 Descending Chicago Center
Thu 04:25:41 PM 42.6239 -86.3903 255° West 435 501 18,500 -2,032 Descending Chicago Center
Thu 04:26:43 PM 42.5964 -86.5406 256° West 415 478 16,800 -1,776 Descending Chicago Center
Thu 04:27:46 PM 42.5708 -86.6794 256° West 385 443 14,800 -1,920 Descending Chicago Center
Thu 04:28:48 PM 42.5381 -86.8128 252° West 375 432 12,800 -1,935 Descending Chicago Center
Thu 04:29:50 PM 42.5042 -86.9411 250° West 363 418 10,800 -1,355 Descending Chicago Center
Thu 04:30:52 PM 42.4619 -87.0958 250° West 367 422 10,000 -387 Descending Chicago Center
Thu 04:31:54 PM 42.4258 -87.2264 249° West 373 429 10,000  Level Chicago Center
Thu 04:32:56 PM 42.3900 -87.3567 250° West 372 428 10,000  Level Chicago Center
Thu 04:33:58 PM 42.3556 -87.4783 249° West 371 427 10,000  Level Chicago Center
Thu 04:35:00 PM 42.2767 -87.6047 230° Southwest 384 442 10,000  Level Chicago Center
Thu 04:36:02 PM 42.1928 -87.6900 217° Southwest 381 438 10,000 -48 Level Chicago Center
Thu 04:37:04 PM 42.1231 -87.7631 218° Southwest 316 364 9,900 -587 Descending Chicago Center
Thu 04:37:34 PM 42.1000 -87.8000 230° Southwest 275 316 9,100 -1,563 Descending Chicago TRACON
Thu 04:38:40 PM 42.1000 -87.9167 270° West 286 329 7,400 -1,000 Descending Chicago TRACON
Thu 04:39:40 PM 42.1000 -88.0167 270° West 239 275 7,000 -550 Descending Chicago TRACON
Thu 04:40:40 PM 42.0833 -88.1000 255° West 223 257 6,300 -978 Descending Chicago TRACON
Thu 04:41:12 PM 42.0806 -88.1386 264° West 226 260 5,500 -1,642 Descending Chicago Center
Thu 04:42:15 PM 42.0294 -88.1478 188° South 239 275 3,700 -1,200 Descending Chicago Center
Thu 04:43:17 PM 42.0011 -88.0775 118° Southeast 227 261 3,000 -871 Descending Chicago Center
Thu 04:44:19 PM 41.9844 -88.0153 110° East 201 231 1,900 -871 Descending Chicago Center
Thu 04:45:21 PM 41.9836 -87.9533 91° East 156 180 1,200 -677 Descending Chicago Center
Thu 04:47:00 PM 41.9817 -87.9067 180° South  Level Estimated

Login

Don't have an account? Register now (free) for customized features, flight alerts, and more!